sensor_id;sensor_type;location;lat;lon;timestamp;pressure;altitude;pressure_sealevel;temperature;humidity
77023;BME280;65952;51.440;-2.054;2023-04-06T00:01:07;100157.69;;;9.75;84.18
77023;BME280;65952;51.440;-2.054;2023-04-06T00:03:33;100156.50;;;9.70;84.50
77023;BME280;65952;51.440;-2.054;2023-04-06T00:05:59;100152.66;;;9.72;84.41
77023;BME280;65952;51.440;-2.054;2023-04-06T00:08:25;100146.63;;;9.79;84.25
77023;BME280;65952;51.440;-2.054;2023-04-06T00:10:51;100146.28;;;9.73;84.17
77023;BME280;65952;51.440;-2.054;2023-04-06T00:13:16;100141.28;;;9.79;84.51
77023;BME280;65952;51.440;-2.054;2023-04-06T00:15:41;100147.44;;;9.71;84.51
77023;BME280;65952;51.440;-2.054;2023-04-06T00:18:07;100142.91;;;9.80;84.39
77023;BME280;65952;51.440;-2.054;2023-04-06T00:20:32;100145.78;;;9.86;84.09
77023;BME280;65952;51.440;-2.054;2023-04-06T00:22:57;100135.56;;;9.82;84.20
77023;BME280;65952;51.440;-2.054;2023-04-06T00:25:23;100139.44;;;9.87;83.95
77023;BME280;65952;51.440;-2.054;2023-04-06T00:27:48;100143.94;;;9.79;84.27
77023;BME280;65952;51.440;-2.054;2023-04-06T00:30:14;100136.75;;;9.79;84.29
77023;BME280;65952;51.440;-2.054;2023-04-06T00:32:39;100137.91;;;9.76;84.88
77023;BME280;65952;51.440;-2.054;2023-04-06T00:35:06;100139.09;;;9.74;84.86
77023;BME280;65952;51.440;-2.054;2023-04-06T00:37:31;100132.88;;;9.73;84.74
77023;BME280;65952;51.440;-2.054;2023-04-06T00:39:57;100123.16;;;9.81;84.73
77023;BME280;65952;51.440;-2.054;2023-04-06T00:42:23;100119.31;;;9.83;84.36
77023;BME280;65952;51.440;-2.054;2023-04-06T00:44:56;100126.53;;;9.83;84.35
77023;BME280;65952;51.440;-2.054;2023-04-06T00:47:22;100120.81;;;9.86;84.31
77023;BME280;65952;51.440;-2.054;2023-04-06T00:49:50;100117.47;;;9.84;84.67
77023;BME280;65952;51.440;-2.054;2023-04-06T00:52:15;100118.97;;;9.78;84.41
77023;BME280;65952;51.440;-2.054;2023-04-06T00:54:41;100112.78;;;9.78;84.78
77023;BME280;65952;51.440;-2.054;2023-04-06T00:57:06;100099.56;;;9.76;84.42
77023;BME280;65952;51.440;-2.054;2023-04-06T00:59:32;100104.41;;;9.72;84.77
77023;BME280;65952;51.440;-2.054;2023-04-06T01:01:57;100101.38;;;9.84;84.57
77023;BME280;65952;51.440;-2.054;2023-04-06T01:04:23;100088.63;;;9.86;84.22
77023;BME280;65952;51.440;-2.054;2023-04-06T01:06:49;100087.78;;;9.77;84.37
77023;BME280;65952;51.440;-2.054;2023-04-06T01:09:15;100095.69;;;9.79;84.54
77023;BME280;65952;51.440;-2.054;2023-04-06T01:11:40;100091.00;;;9.72;84.77
77023;BME280;65952;51.440;-2.054;2023-04-06T01:14:06;100084.47;;;9.67;85.04
77023;BME280;65952;51.440;-2.054;2023-04-06T01:16:31;100078.25;;;9.74;85.00
77023;BME280;65952;51.440;-2.054;2023-04-06T01:18:57;100076.56;;;9.82;84.78
77023;BME280;65952;51.440;-2.054;2023-04-06T01:21:22;100072.53;;;9.86;84.72
77023;BME280;65952;51.440;-2.054;2023-04-06T01:23:48;100079.25;;;9.82;84.67
77023;BME280;65952;51.440;-2.054;2023-04-06T01:26:13;100077.75;;;9.79;84.98
77023;BME280;65952;51.440;-2.054;2023-04-06T01:28:39;100069.34;;;9.82;84.59
77023;BME280;65952;51.440;-2.054;2023-04-06T01:31:08;100058.31;;;9.85;84.40
77023;BME280;65952;51.440;-2.054;2023-04-06T01:33:33;100063.34;;;9.80;84.66
77023;BME280;65952;51.440;-2.054;2023-04-06T01:35:59;100053.13;;;9.84;84.81
77023;BME280;65952;51.440;-2.054;2023-04-06T01:38:25;100056.31;;;9.87;84.52
77023;BME280;65952;51.440;-2.054;2023-04-06T01:40:51;100055.28;;;9.88;84.32
77023;BME280;65952;51.440;-2.054;2023-04-06T01:43:17;100052.09;;;9.85;84.35
77023;BME280;65952;51.440;-2.054;2023-04-06T01:45:42;100049.91;;;9.88;84.35
77023;BME280;65952;51.440;-2.054;2023-04-06T01:48:08;100049.78;;;9.82;84.43
77023;BME280;65952;51.440;-2.054;2023-04-06T01:50:33;100048.59;;;9.84;84.23
77023;BME280;65952;51.440;-2.054;2023-04-06T01:52:58;100046.59;;;9.78;84.74
77023;BME280;65952;51.440;-2.054;2023-04-06T01:55:24;100044.22;;;9.83;84.50
77023;BME280;65952;51.440;-2.054;2023-04-06T01:57:49;100039.38;;;9.87;84.58
77023;BME280;65952;51.440;-2.054;2023-04-06T02:00:15;100033.81;;;9.88;84.41
77023;BME280;65952;51.440;-2.054;2023-04-06T02:02:41;100047.22;;;9.88;84.79
77023;BME280;65952;51.440;-2.054;2023-04-06T02:05:07;100040.38;;;9.94;84.68
77023;BME280;65952;51.440;-2.054;2023-04-06T02:07:38;100036.00;;;9.85;84.81
77023;BME280;65952;51.440;-2.054;2023-04-06T02:10:04;100035.81;;;9.95;84.50
77023;BME280;65952;51.440;-2.054;2023-04-06T02:12:35;100029.66;;;9.86;85.01
77023;BME280;65952;51.440;-2.054;2023-04-06T02:15:01;100035.31;;;9.91;84.97
77023;BME280;65952;51.440;-2.054;2023-04-06T02:17:27;100040.88;;;9.98;84.58
77023;BME280;65952;51.440;-2.054;2023-04-06T02:19:52;100026.59;;;9.97;84.68
77023;BME280;65952;51.440;-2.054;2023-04-06T02:22:17;100027.28;;;9.91;84.93
77023;BME280;65952;51.440;-2.054;2023-04-06T02:24:43;100013.88;;;9.91;84.92
77023;BME280;65952;51.440;-2.054;2023-04-06T02:27:08;100014.06;;;9.98;84.92
77023;BME280;65952;51.440;-2.054;2023-04-06T02:29:34;100019.22;;;9.99;84.91
77023;BME280;65952;51.440;-2.054;2023-04-06T02:31:59;100018.91;;;9.94;85.14
77023;BME280;65952;51.440;-2.054;2023-04-06T02:34:24;100019.91;;;9.93;84.94
77023;BME280;65952;51.440;-2.054;2023-04-06T02:36:50;100015.88;;;9.97;85.11
77023;BME280;65952;51.440;-2.054;2023-04-06T02:39:15;100022.09;;;9.98;85.09
77023;BME280;65952;51.440;-2.054;2023-04-06T02:41:41;100013.03;;;9.99;85.02
77023;BME280;65952;51.440;-2.054;2023-04-06T02:44:07;100013.50;;;10.02;84.80
77023;BME280;65952;51.440;-2.054;2023-04-06T02:46:34;100010.69;;;10.04;84.68
77023;BME280;65952;51.440;-2.054;2023-04-06T02:48:59;100014.88;;;10.06;84.67
77023;BME280;65952;51.440;-2.054;2023-04-06T02:51:26;100002.63;;;10.04;84.76
77023;BME280;65952;51.440;-2.054;2023-04-06T02:53:51;100006.16;;;10.04;84.76
77023;BME280;65952;51.440;-2.054;2023-04-06T02:56:17;100010.00;;;10.02;85.09
77023;BME280;65952;51.440;-2.054;2023-04-06T02:58:42;100009.50;;;10.06;85.06
77023;BME280;65952;51.440;-2.054;2023-04-06T03:01:07;100014.00;;;10.06;85.03
77023;BME280;65952;51.440;-2.054;2023-04-06T03:03:33;100000.28;;;10.09;85.51
77023;BME280;65952;51.440;-2.054;2023-04-06T03:05:58;100007.63;;;10.15;84.89
77023;BME280;65952;51.440;-2.054;2023-04-06T03:08:25;100000.91;;;10.11;84.91
77023;BME280;65952;51.440;-2.054;2023-04-06T03:10:50;99995.56;;;10.11;85.14
77023;BME280;65952;51.440;-2.054;2023-04-06T03:13:16;100000.28;;;10.01;85.06
77023;BME280;65952;51.440;-2.054;2023-04-06T03:15:41;100001.94;;;10.10;84.32
77023;BME280;65952;51.440;-2.054;2023-04-06T03:18:07;99993.41;;;10.06;84.02
77023;BME280;65952;51.440;-2.054;2023-04-06T03:20:32;99982.31;;;10.09;83.80
77023;BME280;65952;51.440;-2.054;2023-04-06T03:22:58;99976.81;;;10.03;83.55
77023;BME280;65952;51.440;-2.054;2023-04-06T03:25:23;99970.97;;;9.99;83.00
77023;BME280;65952;51.440;-2.054;2023-04-06T03:27:48;99959.22;;;10.00;83.34
77023;BME280;65952;51.440;-2.054;2023-04-06T03:30:14;99952.56;;;9.96;83.21
77023;BME280;65952;51.440;-2.054;2023-04-06T03:32:42;99947.34;;;9.95;82.97
77023;BME280;65952;51.440;-2.054;2023-04-06T03:35:07;99941.47;;;9.91;82.75
77023;BME280;65952;51.440;-2.054;2023-04-06T03:37:33;99935.13;;;9.92;82.81
77023;BME280;65952;51.440;-2.054;2023-04-06T03:39:58;99942.34;;;9.83;82.60
77023;BME280;65952;51.440;-2.054;2023-04-06T03:42:37;99940.72;;;9.74;82.80
77023;BME280;65952;51.440;-2.054;2023-04-06T03:45:04;99927.44;;;9.81;82.55
77023;BME280;65952;51.440;-2.054;2023-04-06T03:47:30;99927.97;;;9.76;82.07
77023;BME280;65952;51.440;-2.054;2023-04-06T03:49:55;99931.31;;;9.78;82.19
77023;BME280;65952;51.440;-2.054;2023-04-06T03:52:20;99928.63;;;9.78;81.86
77023;BME280;65952;51.440;-2.054;2023-04-06T03:54:48;99924.63;;;9.74;81.99
77023;BME280;65952;51.440;-2.054;2023-04-06T03:57:13;99917.75;;;9.71;82.12
77023;BME280;65952;51.440;-2.054;2023-04-06T03:59:39;99901.69;;;9.71;81.83
77023;BME280;65952;51.440;-2.054;2023-04-06T04:02:05;99909.72;;;9.71;82.00
77023;BME280;65952;51.440;-2.054;2023-04-06T04:04:30;99921.63;;;9.69;81.75
77023;BME280;65952;51.440;-2.054;2023-04-06T04:06:56;99921.94;;;9.66;82.02
77023;BME280;65952;51.440;-2.054;2023-04-06T04:09:21;99923.31;;;9.62;81.97
77023;BME280;65952;51.440;-2.054;2023-04-06T04:11:46;99928.00;;;9.59;81.71
77023;BME280;65952;51.440;-2.054;2023-04-06T04:14:12;99944.94;;;9.52;81.79
77023;BME280;65952;51.440;-2.054;2023-04-06T04:16:37;99953.31;;;9.49;82.08
77023;BME280;65952;51.440;-2.054;2023-04-06T04:19:04;99956.31;;;9.46;82.30
77023;BME280;65952;51.440;-2.054;2023-04-06T04:21:30;99960.00;;;9.44;82.33
77023;BME280;65952;51.440;-2.054;2023-04-06T04:23:56;99973.41;;;9.44;82.69
77023;BME280;65952;51.440;-2.054;2023-04-06T04:26:22;99964.72;;;9.42;82.45
77023;BME280;65952;51.440;-2.054;2023-04-06T04:28:47;99961.69;;;9.46;82.68
77023;BME280;65952;51.440;-2.054;2023-04-06T04:31:12;99964.03;;;9.57;82.14
77023;BME280;65952;51.440;-2.054;2023-04-06T04:33:38;99963.38;;;9.55;82.59
77023;BME280;65952;51.440;-2.054;2023-04-06T04:36:03;99952.16;;;9.51;82.70
77023;BME280;65952;51.440;-2.054;2023-04-06T04:38:29;99961.53;;;9.47;82.30
77023;BME280;65952;51.440;-2.054;2023-04-06T04:40:54;99951.66;;;9.56;82.18
77023;BME280;65952;51.440;-2.054;2023-04-06T04:43:20;99951.78;;;9.54;81.94
77023;BME280;65952;51.440;-2.054;2023-04-06T04:45:45;99952.97;;;9.60;82.22
77023;BME280;65952;51.440;-2.054;2023-04-06T04:48:10;99953.63;;;9.62;81.84
77023;BME280;65952;51.440;-2.054;2023-04-06T04:50:36;99948.75;;;9.66;81.67
77023;BME280;65952;51.440;-2.054;2023-04-06T04:53:01;99950.28;;;9.60;81.95
77023;BME280;65952;51.440;-2.054;2023-04-06T04:55:27;99947.28;;;9.55;82.05
77023;BME280;65952;51.440;-2.054;2023-04-06T04:57:52;99945.94;;;9.51;82.07
77023;BME280;65952;51.440;-2.054;2023-04-06T05:00:18;99945.44;;;9.55;81.86
77023;BME280;65952;51.440;-2.054;2023-04-06T05:02:43;99936.56;;;9.47;82.18
77023;BME280;65952;51.440;-2.054;2023-04-06T05:05:09;99944.28;;;9.50;82.15
77023;BME280;65952;51.440;-2.054;2023-04-06T05:07:34;99925.19;;;9.53;81.65
77023;BME280;65952;51.440;-2.054;2023-04-06T05:10:00;99914.78;;;9.58;81.51
77023;BME280;65952;51.440;-2.054;2023-04-06T05:12:26;99916.31;;;9.52;81.50
77023;BME280;65952;51.440;-2.054;2023-04-06T05:14:53;99920.31;;;9.56;81.43
77023;BME280;65952;51.440;-2.054;2023-04-06T05:17:18;99922.16;;;9.56;81.39
77023;BME280;65952;51.440;-2.054;2023-04-06T05:19:44;99934.91;;;9.54;81.72
77023;BME280;65952;51.440;-2.054;2023-04-06T05:22:10;99931.22;;;9.47;81.80
77023;BME280;65952;51.440;-2.054;2023-04-06T05:24:35;99932.06;;;9.47;81.96
77023;BME280;65952;51.440;-2.054;2023-04-06T05:27:01;99940.56;;;9.51;81.69
77023;BME280;65952;51.440;-2.054;2023-04-06T05:29:27;99930.22;;;9.48;81.53
77023;BME280;65952;51.440;-2.054;2023-04-06T05:31:52;99934.91;;;9.54;81.83
77023;BME280;65952;51.440;-2.054;2023-04-06T05:34:17;99926.16;;;9.60;81.31
77023;BME280;65952;51.440;-2.054;2023-04-06T05:36:43;99924.31;;;9.60;81.38
77023;BME280;65952;51.440;-2.054;2023-04-06T05:39:08;99925.31;;;9.59;81.63
77023;BME280;65952;51.440;-2.054;2023-04-06T05:41:33;99921.13;;;9.57;81.40
77023;BME280;65952;51.440;-2.054;2023-04-06T05:43:59;99927.84;;;9.61;81.34
77023;BME280;65952;51.440;-2.054;2023-04-06T05:46:24;99930.53;;;9.61;81.48
77023;BME280;65952;51.440;-2.054;2023-04-06T05:48:50;99929.50;;;9.62;81.47
77023;BME280;65952;51.440;-2.054;2023-04-06T05:51:15;99936.72;;;9.62;81.52
77023;BME280;65952;51.440;-2.054;2023-04-06T05:53:40;99938.72;;;9.59;81.47
77023;BME280;65952;51.440;-2.054;2023-04-06T05:56:06;99941.41;;;9.68;81.46
77023;BME280;65952;51.440;-2.054;2023-04-06T05:58:31;99943.56;;;9.64;81.48
77023;BME280;65952;51.440;-2.054;2023-04-06T06:00:58;99942.75;;;9.55;81.79
77023;BME280;65952;51.440;-2.054;2023-04-06T06:03:23;99945.94;;;9.67;81.44
77023;BME280;65952;51.440;-2.054;2023-04-06T06:05:49;99945.41;;;9.72;80.87
77023;BME280;65952;51.440;-2.054;2023-04-06T06:08:14;99959.97;;;9.69;81.34
77023;BME280;65952;51.440;-2.054;2023-04-06T06:10:40;99955.94;;;9.73;81.42
77023;BME280;65952;51.440;-2.054;2023-04-06T06:13:05;99957.94;;;9.80;81.10
77023;BME280;65952;51.440;-2.054;2023-04-06T06:15:31;99967.00;;;9.70;81.06
77023;BME280;65952;51.440;-2.054;2023-04-06T06:17:56;99956.28;;;9.70;81.63
77023;BME280;65952;51.440;-2.054;2023-04-06T06:20:21;99957.63;;;9.74;81.51
77023;BME280;65952;51.440;-2.054;2023-04-06T06:22:47;99962.66;;;9.78;81.21
77023;BME280;65952;51.440;-2.054;2023-04-06T06:25:12;99963.78;;;9.83;81.64
77023;BME280;65952;51.440;-2.054;2023-04-06T06:27:38;99961.13;;;9.83;81.67
77023;BME280;65952;51.440;-2.054;2023-04-06T06:30:04;99972.34;;;9.87;81.89
77023;BME280;65952;51.440;-2.054;2023-04-06T06:32:30;99969.66;;;9.87;82.17
77023;BME280;65952;51.440;-2.054;2023-04-06T06:34:55;99961.25;;;9.98;82.08
77023;BME280;65952;51.440;-2.054;2023-04-06T06:37:20;99959.88;;;10.02;82.06
77023;BME280;65952;51.440;-2.054;2023-04-06T06:39:46;99962.66;;;10.17;81.69
77023;BME280;65952;51.440;-2.054;2023-04-06T06:42:11;99974.91;;;10.20;81.61
77023;BME280;65952;51.440;-2.054;2023-04-06T06:44:36;99973.06;;;10.20;81.67
77023;BME280;65952;51.440;-2.054;2023-04-06T06:47:02;99972.72;;;10.23;81.46
77023;BME280;65952;51.440;-2.054;2023-04-06T06:49:27;99967.88;;;10.19;81.33
77023;BME280;65952;51.440;-2.054;2023-04-06T06:51:52;99974.19;;;10.34;81.13
77023;BME280;65952;51.440;-2.054;2023-04-06T06:54:18;99973.31;;;10.34;80.86
77023;BME280;65952;51.440;-2.054;2023-04-06T06:56:43;99973.16;;;10.44;80.58
77023;BME280;65952;51.440;-2.054;2023-04-06T06:59:09;99972.94;;;10.53;80.73
77023;BME280;65952;51.440;-2.054;2023-04-06T07:01:34;99971.06;;;10.85;79.23
77023;BME280;65952;51.440;-2.054;2023-04-06T07:04:00;99970.13;;;11.25;78.41
77023;BME280;65952;51.440;-2.054;2023-04-06T07:06:25;99966.72;;;11.46;76.10
77023;BME280;65952;51.440;-2.054;2023-04-06T07:08:51;99978.22;;;11.54;75.06
77023;BME280;65952;51.440;-2.054;2023-04-06T07:11:16;99979.44;;;11.67;75.00
77023;BME280;65952;51.440;-2.054;2023-04-06T07:13:42;99983.78;;;11.53;74.95
77023;BME280;65952;51.440;-2.054;2023-04-06T07:16:07;99991.00;;;11.37;75.34
77023;BME280;65952;51.440;-2.054;2023-04-06T07:18:33;99989.31;;;11.36;75.43
77023;BME280;65952;51.440;-2.054;2023-04-06T07:20:58;99987.78;;;11.42;75.53
77023;BME280;65952;51.440;-2.054;2023-04-06T07:23:23;99987.28;;;11.38;75.27
77023;BME280;65952;51.440;-2.054;2023-04-06T07:25:49;99990.47;;;11.57;75.13
77023;BME280;65952;51.440;-2.054;2023-04-06T07:28:16;99987.94;;;11.79;74.10
77023;BME280;65952;51.440;-2.054;2023-04-06T07:30:41;99988.00;;;11.85;73.66
77023;BME280;65952;51.440;-2.054;2023-04-06T07:33:07;99990.47;;;12.10;72.54
77023;BME280;65952;51.440;-2.054;2023-04-06T07:35:33;99994.72;;;12.19;72.20
77023;BME280;65952;51.440;-2.054;2023-04-06T07:38:00;99995.72;;;12.33;71.52
77023;BME280;65952;51.440;-2.054;2023-04-06T07:40:25;99990.44;;;12.40;71.00
77023;BME280;65952;51.440;-2.054;2023-04-06T07:42:52;99994.44;;;12.29;71.19
77023;BME280;65952;51.440;-2.054;2023-04-06T07:45:17;99992.97;;;12.12;71.68
77023;BME280;65952;51.440;-2.054;2023-04-06T07:47:43;100000.28;;;12.03;71.43
77023;BME280;65952;51.440;-2.054;2023-04-06T07:50:09;100006.88;;;12.00;72.01
77023;BME280;65952;51.440;-2.054;2023-04-06T07:52:34;100003.22;;;11.93;72.04
77023;BME280;65952;51.440;-2.054;2023-04-06T07:55:00;100012.03;;;11.87;72.89
77023;BME280;65952;51.440;-2.054;2023-04-06T07:57:25;100012.25;;;12.00;72.48
77023;BME280;65952;51.440;-2.054;2023-04-06T07:59:50;100020.16;;;12.02;71.96
77023;BME280;65952;51.440;-2.054;2023-04-06T08:02:16;100006.34;;;12.20;71.89
77023;BME280;65952;51.440;-2.054;2023-04-06T08:04:42;100011.25;;;12.31;71.34
77023;BME280;65952;51.440;-2.054;2023-04-06T08:07:07;100008.44;;;12.40;71.02
77023;BME280;65952;51.440;-2.054;2023-04-06T08:09:33;100010.31;;;12.39;70.80
77023;BME280;65952;51.440;-2.054;2023-04-06T08:11:58;100013.63;;;12.41;70.60
77023;BME280;65952;51.440;-2.054;2023-04-06T08:14:23;100019.69;;;12.43;70.53
77023;BME280;65952;51.440;-2.054;2023-04-06T08:16:49;100017.78;;;12.59;69.78
77023;BME280;65952;51.440;-2.054;2023-04-06T08:19:14;100013.34;;;12.88;68.88
77023;BME280;65952;51.440;-2.054;2023-04-06T08:21:42;100009.47;;;13.55;67.29
77023;BME280;65952;51.440;-2.054;2023-04-06T08:24:08;100021.22;;;14.39;64.26
77023;BME280;65952;51.440;-2.054;2023-04-06T08:26:33;100014.81;;;15.02;61.36
77023;BME280;65952;51.440;-2.054;2023-04-06T08:28:59;100024.56;;;14.97;60.69
77023;BME280;65952;51.440;-2.054;2023-04-06T08:31:24;100022.94;;;14.95;61.57
77023;BME280;65952;51.440;-2.054;2023-04-06T08:33:51;100018.34;;;16.30;58.36
77023;BME280;65952;51.440;-2.054;2023-04-06T08:36:16;100029.06;;;17.92;52.25
77023;BME280;65952;51.440;-2.054;2023-04-06T08:38:45;100026.16;;;18.67;50.75
77023;BME280;65952;51.440;-2.054;2023-04-06T08:41:12;100025.56;;;19.80;47.58
77023;BME280;65952;51.440;-2.054;2023-04-06T08:43:47;100030.81;;;20.18;46.05
77023;BME280;65952;51.440;-2.054;2023-04-06T08:46:13;100024.78;;;21.26;44.71
77023;BME280;65952;51.440;-2.054;2023-04-06T08:48:40;100028.22;;;21.04;43.56
77023;BME280;65952;51.440;-2.054;2023-04-06T08:51:05;100032.81;;;21.50;42.85
77023;BME280;65952;51.440;-2.054;2023-04-06T08:53:31;100034.94;;;22.16;41.38
77023;BME280;65952;51.440;-2.054;2023-04-06T08:55:58;100043.41;;;22.76;39.37
77023;BME280;65952;51.440;-2.054;2023-04-06T08:58:24;100047.84;;;23.31;39.45
77023;BME280;65952;51.440;-2.054;2023-04-06T09:00:50;100041.22;;;23.92;37.42
77023;BME280;65952;51.440;-2.054;2023-04-06T09:03:17;100044.81;;;23.60;37.93
77023;BME280;65952;51.440;-2.054;2023-04-06T09:05:43;100051.56;;;23.20;38.16
77023;BME280;65952;51.440;-2.054;2023-04-06T09:08:09;100044.53;;;22.58;39.97
77023;BME280;65952;51.440;-2.054;2023-04-06T09:10:35;100048.66;;;21.82;40.66
77023;BME280;65952;51.440;-2.054;2023-04-06T09:13:08;100055.69;;;22.34;39.35
77023;BME280;65952;51.440;-2.054;2023-04-06T09:15:34;100038.72;;;21.92;41.26
77023;BME280;65952;51.440;-2.054;2023-04-06T09:18:00;100055.31;;;22.64;39.83
77023;BME280;65952;51.440;-2.054;2023-04-06T09:20:26;100059.50;;;22.72;38.92
77023;BME280;65952;51.440;-2.054;2023-04-06T09:22:53;100071.38;;;21.36;41.08
77023;BME280;65952;51.440;-2.054;2023-04-06T09:25:21;100061.81;;;21.22;41.74
77023;BME280;65952;51.440;-2.054;2023-04-06T09:27:47;100052.38;;;20.84;41.55
77023;BME280;65952;51.440;-2.054;2023-04-06T09:30:14;100062.38;;;20.54;43.36
77023;BME280;65952;51.440;-2.054;2023-04-06T09:32:59;100066.78;;;20.55;42.68
77023;BME280;65952;51.440;-2.054;2023-04-06T09:35:25;100063.47;;;20.94;43.47
77023;BME280;65952;51.440;-2.054;2023-04-06T09:37:52;100056.16;;;22.08;40.83
77023;BME280;65952;51.440;-2.054;2023-04-06T09:40:18;100058.31;;;23.12;37.64
77023;BME280;65952;51.440;-2.054;2023-04-06T09:42:48;100054.94;;;23.27;36.57
77023;BME280;65952;51.440;-2.054;2023-04-06T09:45:14;100061.84;;;22.41;36.41
77023;BME280;65952;51.440;-2.054;2023-04-06T09:47:42;100059.22;;;20.98;38.80
77023;BME280;65952;51.440;-2.054;2023-04-06T09:50:10;100072.25;;;19.42;41.92
77023;BME280;65952;51.440;-2.054;2023-04-06T09:52:40;100072.59;;;18.84;44.83
77023;BME280;65952;51.440;-2.054;2023-04-06T09:55:08;100071.25;;;17.69;45.40
77023;BME280;65952;51.440;-2.054;2023-04-06T09:57:49;100072.28;;;17.04;48.44
77023;BME280;65952;51.440;-2.054;2023-04-06T10:00:17;100067.25;;;16.55;48.55
77023;BME280;65952;51.440;-2.054;2023-04-06T10:02:56;100072.56;;;16.03;49.46
77023;BME280;65952;51.440;-2.054;2023-04-06T10:08:38;100076.91;;;15.64;49.30
77023;BME280;65952;51.440;-2.054;2023-04-06T10:11:08;100071.28;;;15.66;49.85
77023;BME280;65952;51.440;-2.054;2023-04-06T10:13:34;100082.53;;;15.63;50.34
77023;BME280;65952;51.440;-2.054;2023-04-06T10:16:00;100075.66;;;15.60;50.97
77023;BME280;65952;51.440;-2.054;2023-04-06T10:18:28;100080.03;;;15.48;51.04
77023;BME280;65952;51.440;-2.054;2023-04-06T10:20:57;100089.16;;;15.47;51.08
77023;BME280;65952;51.440;-2.054;2023-04-06T10:23:35;100080.34;;;15.11;51.57
77023;BME280;65952;51.440;-2.054;2023-04-06T10:26:02;100087.22;;;15.14;51.25
77023;BME280;65952;51.440;-2.054;2023-04-06T10:28:34;100089.72;;;15.08;52.21
77023;BME280;65952;51.440;-2.054;2023-04-06T10:31:05;100088.56;;;15.78;48.93
77023;BME280;65952;51.440;-2.054;2023-04-06T10:33:30;100091.50;;;15.83;49.02
77023;BME280;65952;51.440;-2.054;2023-04-06T10:35:56;100085.38;;;16.62;48.67
77023;BME280;65952;51.440;-2.054;2023-04-06T10:38:33;100085.94;;;17.86;45.71
77023;BME280;65952;51.440;-2.054;2023-04-06T10:41:04;100083.38;;;17.92;43.79
77023;BME280;65952;51.440;-2.054;2023-04-06T10:43:33;100081.81;;;17.77;44.72
77023;BME280;65952;51.440;-2.054;2023-04-06T10:46:00;100083.50;;;18.03;44.31
77023;BME280;65952;51.440;-2.054;2023-04-06T10:48:42;100086.34;;;18.52;42.13
77023;BME280;65952;51.440;-2.054;2023-04-06T10:53:37;100093.66;;;17.58;43.63
77023;BME280;65952;51.440;-2.054;2023-04-06T10:56:04;100095.06;;;16.89;45.83
77023;BME280;65952;51.440;-2.054;2023-04-06T10:58:35;100100.78;;;16.68;46.64
77023;BME280;65952;51.440;-2.054;2023-04-06T11:01:00;100086.59;;;16.66;46.59
77023;BME280;65952;51.440;-2.054;2023-04-06T11:03:26;100097.94;;;17.01;46.00
77023;BME280;65952;51.440;-2.054;2023-04-06T11:05:52;100083.25;;;17.22;45.59
77023;BME280;65952;51.440;-2.054;2023-04-06T11:10:48;100092.72;;;17.70;44.45
77023;BME280;65952;51.440;-2.054;2023-04-06T11:13:14;100096.81;;;18.12;44.12
77023;BME280;65952;51.440;-2.054;2023-04-06T11:15:40;100095.00;;;17.48;44.43
77023;BME280;65952;51.440;-2.054;2023-04-06T11:18:05;100095.34;;;17.59;44.56
77023;BME280;65952;51.440;-2.054;2023-04-06T11:20:31;100093.63;;;17.90;43.71
77023;BME280;65952;51.440;-2.054;2023-04-06T11:22:56;100093.69;;;18.08;45.67
77023;BME280;65952;51.440;-2.054;2023-04-06T11:25:23;100111.50;;;18.48;43.80
77023;BME280;65952;51.440;-2.054;2023-04-06T11:27:50;100098.13;;;18.46;45.82
77023;BME280;65952;51.440;-2.054;2023-04-06T11:30:16;100106.50;;;18.45;44.46
77023;BME280;65952;51.440;-2.054;2023-04-06T11:32:45;100125.16;;;18.41;44.27
77023;BME280;65952;51.440;-2.054;2023-04-06T11:35:19;100133.84;;;17.03;44.14
77023;BME280;65952;51.440;-2.054;2023-04-06T11:37:44;100137.34;;;16.32;45.47
77023;BME280;65952;51.440;-2.054;2023-04-06T11:40:10;100145.84;;;15.88;46.67
77023;BME280;65952;51.440;-2.054;2023-04-06T11:42:36;100153.22;;;15.26;48.69
77023;BME280;65952;51.440;-2.054;2023-04-06T11:45:02;100159.25;;;14.79;50.46
77023;BME280;65952;51.440;-2.054;2023-04-06T11:47:37;100162.28;;;14.13;52.67
77023;BME280;65952;51.440;-2.054;2023-04-06T11:50:11;100172.16;;;13.77;56.03
77023;BME280;65952;51.440;-2.054;2023-04-06T11:52:38;100172.72;;;13.51;56.05
77023;BME280;65952;51.440;-2.054;2023-04-06T11:55:18;100166.66;;;13.34;56.88
77023;BME280;65952;51.440;-2.054;2023-04-06T11:57:44;100172.63;;;13.44;56.91
77023;BME280;65952;51.440;-2.054;2023-04-06T12:00:10;100167.38;;;13.58;56.53
77023;BME280;65952;51.440;-2.054;2023-04-06T12:02:39;100173.44;;;13.81;55.59
77023;BME280;65952;51.440;-2.054;2023-04-06T12:05:05;100167.97;;;13.96;54.31
77023;BME280;65952;51.440;-2.054;2023-04-06T12:07:32;100167.03;;;14.11;53.28
77023;BME280;65952;51.440;-2.054;2023-04-06T12:09:58;100173.13;;;14.20;53.62
77023;BME280;65952;51.440;-2.054;2023-04-06T12:12:24;100171.38;;;14.34;53.27
77023;BME280;65952;51.440;-2.054;2023-04-06T12:14:50;100169.13;;;14.37;53.52
77023;BME280;65952;51.440;-2.054;2023-04-06T12:17:16;100171.44;;;14.40;53.77
77023;BME280;65952;51.440;-2.054;2023-04-06T12:19:41;100169.19;;;14.44;54.45
77023;BME280;65952;51.440;-2.054;2023-04-06T12:22:06;100180.41;;;14.19;57.79
77023;BME280;65952;51.440;-2.054;2023-04-06T12:24:32;100186.66;;;13.76;60.15
77023;BME280;65952;51.440;-2.054;2023-04-06T12:26:58;100177.59;;;13.26;59.42
77023;BME280;65952;51.440;-2.054;2023-04-06T12:29:24;100173.50;;;13.15;59.85
77023;BME280;65952;51.440;-2.054;2023-04-06T12:31:50;100168.84;;;13.09;60.46
77023;BME280;65952;51.440;-2.054;2023-04-06T12:34:16;100159.38;;;13.13;60.10
77023;BME280;65952;51.440;-2.054;2023-04-06T12:36:41;100161.22;;;13.27;61.92
77023;BME280;65952;51.440;-2.054;2023-04-06T12:39:06;100162.63;;;13.60;60.94
77023;BME280;65952;51.440;-2.054;2023-04-06T12:41:32;100160.78;;;14.04;61.06
77023;BME280;65952;51.440;-2.054;2023-04-06T12:43:57;100157.19;;;14.25;58.45
77023;BME280;65952;51.440;-2.054;2023-04-06T12:46:24;100158.44;;;14.86;59.16
77023;BME280;65952;51.440;-2.054;2023-04-06T12:48:51;100160.84;;;15.09;57.19
77023;BME280;65952;51.440;-2.054;2023-04-06T12:51:18;100145.75;;;15.41;53.52